Time;durP1;ratioP1;P1;durP2;ratioP2;P2;SDS_P1;SDS_P2;PMS_P1;PMS_P2;Temp;Humidity;BMP_temperature;BMP_pressure;BME280_temperature;BME280_humidity;BME280_pressure;Samples;Min_cycle;Max_cycle;Signal;HPM_P1;HPM_P2
2022/01/02 07:31:18;;;;;;;7.67;6.97;;;;;;;12.65;69.48;95273.80;828094;71;30306;-80
2022/01/02 07:46:13;;;;;;;7.10;6.47;;;;;;;12.12;68.00;95285.14;834265;71;29721;-82
2022/01/02 08:01:19;;;;;;;7.35;6.65;;;;;;;12.08;68.00;95274.14;827209;71;32698;-81
2022/01/02 08:16:16;;;;;;;9.50;7.83;;;;;;;12.19;67.63;95279.03;834740;71;32680;-80
2022/01/02 08:31:22;;;;;;;8.20;7.40;;;;;;;12.27;66.78;95286.86;827951;71;31034;-83
2022/01/02 08:46:27;;;;;;;8.40;7.60;;;;;;;12.95;65.44;95285.83;827625;71;33300;-81
2022/01/02 09:01:27;;;;;;;7.03;6.40;;;;;;;14.28;60.41;95285.75;834855;71;32688;-84
2022/01/02 09:16:30;;;;;;;6.62;6.05;;;;;;;16.60;55.58;95261.09;828263;71;32697;-84
2022/01/02 09:32:13;;;;;;;;;;;;;;;;;;;;;
2022/01/02 10:01:10;;;;;;;5.50;5.03;;;;;;;20.83;42.04;95196.18;821644;71;30375;-80
2022/01/02 10:16:25;;;;;;;5.43;5.00;;;;;;;21.08;41.07;95194.23;821186;71;30300;-85
2022/01/02 10:31:21;;;;;;;4.80;4.40;;;;;;;21.50;39.83;95164.55;823283;71;30391;-84
2022/01/02 10:46:17;;;;;;;5.03;4.13;;;;;;;21.60;39.00;95154.70;823498;71;29704;-86
2022/01/02 11:01:15;;;;;;;4.20;3.90;;;;;;;21.66;38.33;95153.34;821241;71;29803;-84
2022/01/02 11:16:14;;;;;;;3.63;3.43;;;;;;;21.51;38.22;95128.16;833952;71;30249;-83
2022/01/02 11:31:32;;;;;;;3.77;3.53;;;;;;;21.62;38.02;95101.72;823945;71;32753;-80
2022/01/02 11:46:31;;;;;;;5.90;5.50;;;;;;;21.44;38.70;95097.81;828050;71;30338;-80
2022/01/02 12:01:51;;;;;;;4.30;4.00;;;;;;;21.00;39.03;95088.64;821572;70;32042;-79
2022/01/02 12:16:24;;;;;;;5.25;4.85;;;;;;;20.48;40.46;95065.95;827917;70;29691;-82
2022/01/02 12:31:38;;;;;;;5.42;4.92;;;;;;;19.98;41.21;95063.34;834296;70;33236;-83
2022/01/02 12:46:17;;;;;;;5.55;5.05;;;;;;;19.46;42.18;95049.28;795522;73;29868;-83
2022/01/02 13:01:13;;;;;;;5.28;4.80;;;;;;;18.67;43.79;95044.46;836809;70;29676;-82
2022/01/02 13:16:11;;;;;;;5.20;4.70;;;;;;;17.90;45.64;95041.99;827259;70;29768;-83
2022/01/02 13:31:26;;;;;;;5.65;5.05;;;;;;;16.94;47.94;95039.07;839786;70;29820;-80
2022/01/02 13:46:37;;;;;;;6.58;5.80;;;;;;;15.72;50.78;95034.96;837512;70;32806;-81
2022/01/02 14:01:25;;;;;;;6.28;5.17;;;;;;;14.72;53.29;95012.36;829518;71;30121;-83
2022/01/02 14:16:43;;;;;;;7.00;6.30;;;;;;;13.82;56.14;95021.41;833913;70;29453;-77
2022/01/02 14:31:15;;;;;;;7.20;6.50;;;;;;;13.14;57.78;95028.97;835571;71;29760;-80
2022/01/02 14:46:14;;;;;;;7.90;7.10;;;;;;;12.67;59.07;95045.24;828348;71;30269;-82
2022/01/02 15:01:24;;;;;;;11.05;9.05;;;;;;;12.32;60.86;95051.81;813990;71;32930;-80
2022/01/02 15:16:52;;;;;;;;;;;;;;;;;;;;;
2022/01/02 15:31:41;;;;;;;;;;;;;;;;;;;;;
2022/01/02 15:46:20;;;;;;;12.60;10.32;;;;;;;11.21;64.18;95054.37;790719;72;29753;-83
2022/01/02 16:01:17;;;;;;;13.72;11.65;;;;;;;10.74;65.20;95049.78;831407;70;29753;-86
2022/01/02 16:16:20;;;;;;;21.90;13.65;;;;;;;10.37;66.29;95050.55;823650;71;32588;-86
2022/01/02 16:31:19;;;;;;;16.67;13.00;;;;;;;10.03;67.48;95047.82;832306;70;30947;-85
2022/01/02 16:46:27;;;;;;;16.55;14.03;;;;;;;9.75;68.40;95041.39;786649;73;33007;-86
2022/01/02 17:16:43;;;;;;;25.05;19.00;;;;;;;9.29;70.45;95023.22;815841;71;33068;-83
2022/01/02 17:31:18;;;;;;;19.48;14.43;;;;;;;9.10;70.49;95038.16;824435;71;29870;-85
2022/01/02 17:47:06;;;;;;;14.33;10.72;;;;;;;8.89;71.83;95011.77;768384;74;1072304;-82
2022/01/02 18:01:21;;;;;;;24.32;17.50;;;;;;;;;;828893;70;32756;-83
2022/01/02 18:16:23;;;;;;;33.13;22.90;;;;;;;8.76;72.81;94996.09;822503;71;32863;-82
2022/01/02 18:31:15;;;;;;;25.95;18.52;;;;;;;8.63;73.12;94989.00;823296;71;33152;-85
2022/01/02 18:46:33;;;;;;;17.25;13.50;;;;;;;8.41;73.04;94967.57;829555;71;32623;-82
2022/01/02 19:01:20;;;;;;;36.23;25.72;;;;;;;8.25;73.35;94951.59;822133;69;30008;-84
2022/01/02 19:46:24;;;;;;;51.77;33.67;;;;;;;7.93;74.88;94945.56;785966;71;33607;-82
2022/01/02 20:01:18;;;;;;;60.95;36.20;;;;;;;7.90;75.34;94943.98;826046;70;29739;-82
2022/01/02 20:47:12;;;;;;;45.28;30.92;;;;;;;7.57;76.75;94893.78;758181;72;33217;-85
2022/01/02 21:01:34;;;;;;;38.50;25.65;;;;;;;7.43;76.51;94901.31;824714;71;32748;31
2022/01/02 21:16:29;;;;;;;44.77;29.37;;;;;;;7.28;76.28;94896.03;814267;68;33243;-81
2022/01/02 22:01:28;;;;;;;33.08;21.90;;;;;;;6.90;76.40;94845.83;828800;71;29692;-85
2022/01/02 22:16:28;;;;;;;30.75;20.72;;;;;;;6.64;77.14;94845.71;835311;71;33163;-87
2022/01/02 22:32:12;;;;;;;30.48;21.62;;;;;;;6.54;77.64;94836.53;777787;72;32715;-84
2022/01/02 22:46:19;;;;;;;28.30;20.17;;;;;;;6.32;78.37;94840.06;829536;71;29678;-86
2022/01/02 23:01:17;;;;;;;27.07;18.62;;;;;;;6.32;78.80;94823.12;829848;71;30348;-84
2022/01/02 23:16:59;;;;;;;27.25;19.85;;;;;;;6.25;79.53;94803.03;830159;71;32758;-86
2022/01/02 23:31:14;;;;;;;26.25;17.82;;;;;;;6.27;79.14;94784.55;825728;71;29693;-87
2022/01/02 23:46:39;;;;;;;26.65;17.80;;;;;;;6.21;78.71;94774.08;817306;71;32791;-88
